Time;durP1;ratioP1;P1;durP2;ratioP2;P2;SDS_P1;SDS_P2;PMS_P1;PMS_P2;Temp;Humidity;BMP_temperature;BMP_pressure;BME280_temperature;BME280_humidity;BME280_pressure;Samples;Min_cycle;Max_cycle;Signal;HPM_P1;HPM_P2
2021/10/12 00:00:37;;;;;;;26.35;19.00;;;7.90;99.90;;;;;;6177654;28;20457;-85
2021/10/12 00:03:38;;;;;;;26.55;20.38;;;;;;;;;;6176726;28;20066;-85
2021/10/12 00:06:39;;;;;;;25.85;19.65;;;7.80;99.90;;;;;;6178320;28;20031;-85
2021/10/12 00:09:39;;;;;;;25.80;18.70;;;9.40;99.90;;;;;;6176996;28;20108;-85
2021/10/12 00:12:40;;;;;;;24.08;18.27;;;;;;;;;;6178000;28;20042;-85
2021/10/12 00:15:41;;;;;;;25.60;19.17;;;7.90;99.90;;;;;;6177646;28;20025;-85
2021/10/12 00:18:42;;;;;;;24.23;19.25;;;;;;;;;;6177451;28;20034;-86
2021/10/12 00:21:43;;;;;;;24.45;17.00;;;;;;;;;;6177655;28;20113;-86
2021/10/12 00:24:43;;;;;;;24.70;17.45;;;7.80;99.90;;;;;;6178403;28;20026;-87
2021/10/12 00:27:44;;;;;;;22.30;16.95;;;;;;;;;;6177472;28;20070;-87
2021/10/12 00:30:46;;;;;;;22.73;16.08;;;7.70;99.90;;;;;;6177828;28;20026;-85
2021/10/12 00:33:46;;;;;;;21.13;16.52;;;9.00;99.90;;;;;;6193763;28;20057;-85
2021/10/12 00:36:47;;;;;;;25.80;18.48;;;7.90;99.90;;;;;;6177463;28;20034;-86
2021/10/12 00:39:48;;;;;;;24.48;17.23;;;8.10;99.90;;;;;;6177504;28;20026;-86
2021/10/12 00:42:49;;;;;;;21.92;17.42;;;;;;;;;;6176862;28;20121;-87
2021/10/12 00:45:49;;;;;;;23.02;17.45;;;7.70;99.90;;;;;;6193541;28;20453;-87
2021/10/12 00:48:50;;;;;;;19.77;16.67;;;7.80;99.90;;;;;;6176914;28;20072;-85
2021/10/12 00:51:51;;;;;;;25.08;17.90;;;;;;;;;;6177188;28;20032;-86
2021/10/12 00:54:51;;;;;;;23.88;17.80;;;7.70;99.90;;;;;;6176931;28;20049;-86
2021/10/12 00:57:53;;;;;;;23.92;17.88;;;;;;;;;;6193452;28;20070;-86
2021/10/12 01:00:53;;;;;;;26.80;19.25;;;7.70;99.90;;;;;;6177200;28;20027;-85
2021/10/12 01:03:54;;;;;;;26.48;18.25;;;7.50;99.90;;;;;;6176709;28;20026;-85
2021/10/12 01:06:54;;;;;;;24.15;18.02;;;7.50;99.90;;;;;;6193301;28;20026;-86
2021/10/12 01:09:55;;;;;;;23.55;18.67;;;;;;;;;;6193137;28;20026;-85
2021/10/12 01:12:56;;;;;;;27.52;19.08;;;7.60;99.90;;;;;;6177008;28;20447;-85
2021/10/12 01:15:57;;;;;;;28.30;19.27;;;;;;;;;;6177043;28;20030;-86
2021/10/12 01:18:58;;;;;;;30.15;19.70;;;7.60;99.90;;;;;;6176849;28;20026;-85
2021/10/12 01:21:59;;;;;;;27.20;18.75;;;;;;;;;;6181467;28;20026;-85
2021/10/12 01:25:01;;;;;;;29.63;19.88;;;;;;;;;;6181499;28;20034;-86
2021/10/12 01:28:01;;;;;;;27.23;19.33;;;7.30;99.90;;;;;;6181379;28;20026;-86
2021/10/12 01:31:02;;;;;;;25.92;19.88;;;;;;;;;;6197599;28;20031;-85
2021/10/12 01:34:16;;;;;;;27.30;20.40;;;7.60;99.90;;;;;;6181447;28;20041;-85
2021/10/12 01:37:17;;;;;;;25.98;18.95;;;;;;;;;;6181440;28;20350;-84
2021/10/12 01:40:18;;;;;;;25.30;18.55;;;;;;;;;;6181123;28;20033;-85
2021/10/12 01:43:19;;;;;;;27.65;19.30;;;;;;;;;;6180709;28;20473;-84
2021/10/12 01:46:20;;;;;;;29.42;19.40;;;;;;;;;;6198559;28;20053;-86
2021/10/12 01:49:22;;;;;;;27.50;19.42;;;;;;;;;;6180657;28;20365;-85
2021/10/12 01:52:23;;;;;;;25.25;19.30;;;7.50;99.90;;;;;;6181021;28;20477;-85
2021/10/12 01:55:24;;;;;;;24.83;18.33;;;7.90;99.90;;;;;;6180752;28;20029;-87
2021/10/12 01:58:24;;;;;;;27.27;18.83;;;8.00;99.90;;;;;;6180369;28;20064;-85
2021/10/12 02:01:25;;;;;;;28.25;19.20;;;;;;;;;;6180329;28;20023;-87
2021/10/12 02:04:26;;;;;;;24.42;18.23;;;7.80;99.90;;;;;;6180726;28;20535;-86
2021/10/12 02:07:27;;;;;;;23.17;17.65;;;;;;;;;;6180447;28;20022;-86
2021/10/12 02:10:28;;;;;;;24.23;16.92;;;8.00;99.90;;;;;;6197345;28;20022;-84
2021/10/12 02:13:28;;;;;;;23.75;17.55;;;;;;;;;;6180483;28;20050;-85
2021/10/12 02:16:29;;;;;;;21.75;17.38;;;8.00;99.90;;;;;;6196453;28;20022;-85
2021/10/12 02:19:30;;;;;;;19.40;15.30;;;7.90;99.90;;;;;;6196568;28;20031;-86
2021/10/12 02:22:30;;;;;;;27.73;16.70;;;7.80;99.90;;;;;;6196534;28;20124;-85
2021/10/12 02:25:31;;;;;;;21.48;16.23;;;;;;;;;;6180185;28;20432;-84
2021/10/12 02:28:32;;;;;;;23.02;16.30;;;8.20;99.90;;;;;;6180100;28;20053;-85
2021/10/12 02:31:33;;;;;;;21.10;16.17;;;7.90;99.90;;;;;;6179253;28;20038;-85
2021/10/12 02:34:33;;;;;;;21.85;16.83;;;7.80;99.90;;;;;;6179973;28;20104;-85
2021/10/12 02:37:34;;;;;;;20.88;15.45;;;7.80;99.90;;;;;;6196409;28;20030;-86
2021/10/12 02:40:35;;;;;;;21.38;16.10;;;;;;;;;;6179754;28;20072;-85
2021/10/12 02:43:35;;;;;;;25.23;17.33;;;8.00;99.90;;;;;;6179569;28;20467;-85
2021/10/12 02:46:36;;;;;;;24.60;17.35;;;;;;;;;;6179753;28;20034;-84
2021/10/12 02:49:37;;;;;;;22.10;17.13;;;;;;;;;;6179780;28;20479;-86
2021/10/12 02:52:38;;;;;;;23.10;18.05;;;7.60;99.90;;;;;;6179778;28;20565;-85
2021/10/12 02:55:39;;;;;;;24.30;17.92;;;;;;;;;;6179461;28;20038;-85
2021/10/12 02:58:39;;;;;;;23.15;18.13;;;7.40;99.90;;;;;;6195469;28;20068;-85
2021/10/12 03:01:40;;;;;;;23.20;18.02;;;;;;;;;;6179442;28;20038;-87
2021/10/12 03:04:41;;;;;;;24.48;17.98;;;7.60;99.90;;;;;;6195093;28;20026;-85
2021/10/12 03:07:42;;;;;;;25.50;18.38;;;;;;;;;;6179202;28;20034;-84
2021/10/12 03:10:43;;;;;;;26.40;19.95;;;;;;;;;;6178785;28;20033;-85
2021/10/12 03:13:43;;;;;;;28.92;20.25;;;7.20;99.90;;;;;;6179262;28;20527;-85
2021/10/12 03:16:44;;;;;;;25.17;18.92;;;7.40;99.90;;;;;;6178829;28;20100;-85
2021/10/12 03:19:45;;;;;;;29.35;21.90;;;7.50;99.90;;;;;;6179126;28;20441;-84
2021/10/12 03:22:46;;;;;;;25.67;19.20;;;;;;;;;;6178822;28;20094;-85
2021/10/12 03:25:46;;;;;;;21.98;17.50;;;7.40;99.90;;;;;;6178935;28;20026;-87
2021/10/12 03:28:47;;;;;;;23.60;17.30;;;8.10;99.90;;;;;;6162519;28;20453;-86
2021/10/12 03:31:48;;;;;;;25.15;18.35;;;;;;;;;;6178550;28;20046;-83
2021/10/12 03:34:49;;;;;;;24.83;18.17;;;7.50;99.90;;;;;;6178611;28;20031;-86
2021/10/12 03:37:49;;;;;;;24.67;18.02;;;7.60;99.90;;;;;;6178086;28;20654;-85
2021/10/12 03:40:50;;;;;;;23.85;17.63;;;7.40;99.90;;;;;;6178534;28;20033;-84
2021/10/12 03:43:51;;;;;;;24.52;17.95;;;;;;;;;;6177884;28;20076;-83
2021/10/12 03:46:52;;;;;;;25.83;17.60;;;7.50;99.90;;;;;;6178254;28;20061;-85
2021/10/12 03:49:53;;;;;;;21.63;17.38;;;;;;;;;;6178292;28;20121;-83
2021/10/12 03:52:54;;;;;;;25.83;18.58;;;;;;;;;;6194533;28;20042;-82
2021/10/12 03:55:55;;;;;;;23.50;17.00;;;;;;;;;;6178245;28;20030;-83
2021/10/12 03:58:56;;;;;;;22.25;17.67;;;7.50;99.90;;;;;;6177911;28;20026;-83
2021/10/12 04:01:56;;;;;;;26.58;17.70;;;7.40;99.90;;;;;;6194181;28;20069;-84
2021/10/12 04:04:57;;;;;;;37.58;18.48;;;7.50;99.90;;;;;;6177612;28;20449;-84
2021/10/12 04:07:58;;;;;;;20.55;16.85;;;;;;;;;;6177790;28;20068;-85
2021/10/12 04:10:59;;;;;;;21.80;16.40;;;;;;;;;;6177868;28;20476;-83
2021/10/12 04:14:00;;;;;;;20.85;15.70;;;;;;;;;;6177788;28;20522;-83
2021/10/12 04:17:01;;;;;;;61.33;33.55;;;;;;;;;;6194037;28;20030;-84
2021/10/12 04:20:02;;;;;;;28.65;19.55;;;7.50;99.90;;;;;;6177828;28;20166;-84
2021/10/12 04:23:03;;;;;;;22.77;17.65;;;;;;;;;;6176974;28;20342;-86
2021/10/12 04:26:11;;;;;;;29.42;17.95;;;7.50;99.90;;;;;;6176914;28;20039;-86
2021/10/12 04:29:12;;;;;;;22.75;18.10;;;7.40;99.90;;;;;;6177897;28;20053;-87
2021/10/12 04:32:13;;;;;;;63.78;36.08;;;;;;;;;;6192903;28;20439;-85
2021/10/12 04:35:13;;;;;;;34.20;24.02;;;7.20;99.90;;;;;;6177046;28;20109;-86
2021/10/12 04:38:14;;;;;;;55.25;36.80;;;;;;;;;;6177329;28;20030;-87
2021/10/12 04:41:15;;;;;;;29.13;19.80;;;7.40;99.90;;;;;;6177253;28;20034;-85
2021/10/12 04:44:15;;;;;;;29.25;20.48;;;7.30;99.90;;;;;;6177484;28;20050;-84
2021/10/12 04:47:18;;;;;;;27.65;19.40;;;8.10;99.90;;;;;;6177373;28;20081;-86
2021/10/12 04:50:19;;;;;;;25.67;18.65;;;9.00;99.90;;;;;;6177533;28;20030;-84
2021/10/12 04:53:20;;;;;;;24.15;17.17;;;7.40;99.90;;;;;;6177028;28;20388;-83
2021/10/12 04:56:20;;;;;;;26.38;20.13;;;7.50;99.90;;;;;;6192698;28;20031;-84
2021/10/12 04:59:21;;;;;;;26.90;18.35;;;7.50;99.90;;;;;;6177027;28;20042;-82
2021/10/12 05:02:22;;;;;;;22.25;17.60;;;;;;;;;;6193254;28;20018;-82
2021/10/12 05:05:22;;;;;;;25.05;17.63;;;7.60;99.90;;;;;;6176532;28;20029;-82
2021/10/12 05:08:23;;;;;;;29.65;19.63;;;7.30;99.90;;;;;;6176711;28;20038;-84
2021/10/12 05:11:25;;;;;;;22.50;16.48;;;7.40;99.90;;;;;;6193070;28;20069;-83
2021/10/12 05:14:25;;;;;;;22.55;15.93;;;7.60;99.90;;;;;;6193421;28;20057;-82
2021/10/12 05:17:37;;;;;;;23.70;17.65;;;7.30;99.90;;;;;;6176755;28;20416;-84
2021/10/12 05:20:38;;;;;;;20.98;16.45;;;7.00;99.90;;;;;;6177073;28;20065;-85
2021/10/12 05:23:38;;;;;;;21.25;15.45;;;7.60;99.90;;;;;;6177002;28;20468;-83
2021/10/12 05:26:40;;;;;;;23.98;15.98;;;7.30;99.90;;;;;;6176754;28;20037;-84
2021/10/12 05:29:41;;;;;;;18.65;14.30;;;7.30;99.90;;;;;;6176492;28;20449;-81
2021/10/12 05:32:42;;;;;;;21.73;14.05;;;;;;;;;;6176220;28;20086;-86
2021/10/12 05:35:43;;;;;;;20.67;15.02;;;;;;;;;;6176164;28;20015;-85
2021/10/12 05:38:46;;;;;;;21.48;15.98;;;;;;;;;;6175835;28;20037;-87
2021/10/12 05:41:46;;;;;;;;;;;7.60;99.90;;;;;;6177265;28;20026;-88
2021/10/12 05:44:47;;;;;;;20.90;14.57;;;;;;;;;;6176318;28;19922;-86
2021/10/12 05:47:48;;;;;;;19.45;14.05;;;;;;;;;;6193139;28;20040;-84
2021/10/12 05:50:49;;;;;;;20.60;16.25;;;;;;;;;;6177198;28;20050;-85
2021/10/12 05:53:52;;;;;;;18.42;14.43;;;;;;;;;;6193151;28;20046;-86
2021/10/12 05:56:59;;;;;;;21.90;16.45;;;;;;;;;;6176367;28;20025;-81
2021/10/12 05:59:59;;;;;;;22.67;16.50;;;7.30;99.90;;;;;;6169615;28;20052;-86
2021/10/12 06:03:00;;;;;;;24.65;16.23;;;7.50;99.90;;;;;;6170986;28;20109;-87
2021/10/12 06:06:02;;;;;;;20.65;15.40;;;;;;;;;;6192408;28;20117;-83
2021/10/12 06:09:03;;;;;;;25.40;17.13;;;;;;;;;;6181045;28;20045;-86
2021/10/12 06:12:04;;;;;;;25.10;17.50;;;7.60;99.90;;;;;;6181189;28;20092;-84
2021/10/12 06:15:05;;;;;;;22.95;17.70;;;7.60;99.90;;;;;;6181169;28;20064;-86
2021/10/12 06:18:06;;;;;;;23.42;17.65;;;7.60;99.90;;;;;;6196794;28;20026;-87
2021/10/12 06:21:06;;;;;;;23.38;17.10;;;7.50;99.90;;;;;;6196795;28;20487;-85
2021/10/12 06:24:07;;;;;;;24.48;17.67;;;7.70;99.90;;;;;;6180323;28;20030;-84
2021/10/12 06:27:08;;;;;;;21.65;17.52;;;;;;;;;;6180292;28;20488;-83
2021/10/12 06:30:09;;;;;;;30.65;17.10;;;8.00;99.90;;;;;;6180566;28;20030;-84
2021/10/12 06:33:10;;;;;;;27.40;17.63;;;7.50;99.90;;;;;;6179607;28;20042;-84
2021/10/12 06:36:11;;;;;;;27.35;16.27;;;;;;;;;;6196139;28;20034;-85
2021/10/12 06:39:12;;;;;;;25.67;17.83;;;;;;;;;;6179894;28;20449;-85
2021/10/12 06:42:13;;;;;;;24.85;17.10;;;7.90;99.90;;;;;;6179830;28;20081;-85
2021/10/12 06:45:16;;;;;;;27.42;16.88;;;8.20;99.90;;;;;;6179352;28;20555;-84
2021/10/12 06:48:17;;;;;;;23.40;17.50;;;8.30;99.90;;;;;;6179985;28;20531;-85
2021/10/12 06:51:18;;;;;;;23.02;17.45;;;8.80;99.90;;;;;;6179473;28;20041;-85
2021/10/12 06:54:25;;;;;;;22.80;16.52;;;9.00;99.90;;;;;;6179825;28;20121;-85
2021/10/12 06:57:25;;;;;;;20.85;16.55;;;9.10;99.90;;;;;;6179205;28;20041;-84
2021/10/12 07:00:26;;;;;;;19.70;15.02;;;9.40;99.90;;;;;;6179443;28;20022;-86
2021/10/12 07:03:27;;;;;;;24.30;16.88;;;;;;;;;;6179635;28;20030;-85
2021/10/12 07:06:28;;;;;;;21.05;15.68;;;9.50;99.90;;;;;;6179370;28;20037;-84
2021/10/12 07:09:28;;;;;;;21.45;16.13;;;9.60;99.90;;;;;;6179558;28;20026;-85
2021/10/12 07:12:29;;;;;;;19.38;14.80;;;9.80;99.90;;;;;;6195541;28;20066;-85
2021/10/12 07:15:30;;;;;;;22.50;15.85;;;9.90;99.90;;;;;;6179425;28;20069;-86
2021/10/12 07:18:30;;;;;;;19.35;14.88;;;;;;;;;;6178744;28;20030;-85
2021/10/12 07:21:32;;;;;;;19.15;14.98;;;;;;;;;;6179353;28;20026;-84
2021/10/12 07:24:32;;;;;;;23.00;16.20;;;10.10;99.90;;;;;;6178694;28;20014;-84
2021/10/12 07:27:34;;;;;;;20.77;15.13;;;10.20;99.90;;;;;;6179065;28;20107;-83
2021/10/12 07:30:35;;;;;;;21.83;15.80;;;;;;;;;;6194495;28;20054;-84
2021/10/12 07:33:36;;;;;;;21.85;15.70;;;;;;;;;;6194686;28;20034;-87
2021/10/12 07:36:37;;;;;;;21.17;15.18;;;10.30;99.90;;;;;;6179143;28;20030;-83
2021/10/12 07:39:41;;;;;;;20.17;14.85;;;10.40;99.90;;;;;;6178397;28;20037;-84
2021/10/12 07:42:42;;;;;;;19.85;14.48;;;10.70;99.90;;;;;;6178297;28;20026;-84
2021/10/12 07:45:43;;;;;;;21.05;14.93;;;11.00;99.90;;;;;;6193910;28;20058;-84
2021/10/12 07:48:44;;;;;;;23.25;15.23;;;10.90;99.90;;;;;;6178029;28;20635;-85
2021/10/12 07:51:44;;;;;;;20.77;15.73;;;10.80;99.90;;;;;;6193948;28;20121;-84
2021/10/12 07:54:47;;;;;;;19.02;13.80;;;;;;;;;;6194480;28;20376;-87
2021/10/12 07:57:47;;;;;;;17.42;14.02;;;10.80;99.90;;;;;;6194005;28;20555;-84
2021/10/12 08:00:48;;;;;;;19.20;14.23;;;10.70;99.90;;;;;;6178380;28;20070;-84
2021/10/12 08:03:49;;;;;;;19.05;13.77;;;;;;;;;;6178348;28;20034;-83
2021/10/12 08:06:49;;;;;;;17.33;14.30;;;10.70;99.90;;;;;;6177615;28;20113;-86
2021/10/12 08:09:50;;;;;;;17.20;13.38;;;10.60;99.90;;;;;;6194097;28;20026;-85
2021/10/12 08:12:57;;;;;;;22.20;14.85;;;10.80;99.90;;;;;;6177736;28;20049;-86
2021/10/12 08:16:06;;;;;;;16.65;14.13;;;10.50;99.90;;;;;;6178033;28;20026;-83
2021/10/12 08:19:43;;;;;;;21.15;14.95;;;10.50;99.90;;;;;;6178294;28;20061;-83
2021/10/12 08:22:44;;;;;;;19.40;14.13;;;10.40;99.90;;;;;;6195554;28;20650;-86
2021/10/12 08:25:44;;;;;;;18.30;13.85;;;10.60;99.90;;;;;;6195104;28;20117;-86
2021/10/12 08:28:45;;;;;;;45.22;18.63;;;10.50;99.90;;;;;;6193760;28;20460;-84
2021/10/12 08:31:46;;;;;;;18.48;14.23;;;;;;;;;;6177026;28;20070;-84
2021/10/12 08:34:47;;;;;;;17.92;14.23;;;10.40;99.90;;;;;;6177476;28;20105;-86
2021/10/12 08:37:47;;;;;;;18.58;13.07;;;10.40;99.90;;;;;;6177990;28;20029;-85
2021/10/12 08:40:48;;;;;;;15.18;13.48;;;;;;;;;;6177167;28;20042;-81
2021/10/12 08:43:51;;;;;;;16.70;12.85;;;;;;;;;;6176437;28;20054;-85
2021/10/12 08:46:54;;;;;;;16.42;12.05;;;12.50;99.90;;;;;;6193178;28;20077;-85
2021/10/12 08:49:55;;;;;;;20.52;13.85;;;;;;;;;;6192902;28;20077;-85
2021/10/12 08:52:55;;;;;;;18.58;14.48;;;10.50;99.90;;;;;;6176424;28;20519;-85
2021/10/12 08:55:57;;;;;;;20.17;15.50;;;10.50;99.90;;;;;;6176270;28;20120;-86
2021/10/12 08:58:58;;;;;;;22.40;15.90;;;;;;;;;;6176489;28;20098;-85
2021/10/12 09:02:05;;;;;;;19.83;15.98;;;10.70;99.90;;;;;;6177450;28;20285;-84
2021/10/12 09:05:06;;;;;;;21.90;16.13;;;11.70;99.90;;;;;;6176748;28;20026;-87
2021/10/12 09:08:07;;;;;;;21.55;17.17;;;;;;;;;;6176934;28;20023;-84
2021/10/12 09:11:21;;;;;;;19.65;14.63;;;10.90;99.90;;;;;;6193071;28;20027;-84
2021/10/12 09:14:22;;;;;;;20.25;14.82;;;11.00;99.90;;;;;;6176906;28;20030;-87
2021/10/12 09:17:30;;;;;;;27.95;15.85;;;10.90;99.90;;;;;;6176850;28;20035;-89
2021/10/12 09:20:32;;;;;;;21.70;15.50;;;11.30;99.90;;;;;;6176952;28;20029;-85
2021/10/12 09:23:34;;;;;;;23.45;15.70;;;;;;;;;;6192939;28;20468;-87
2021/10/12 09:26:37;;;;;;;21.83;16.60;;;11.20;99.90;;;;;;6176998;28;20738;-85
2021/10/12 09:29:49;;;;;;;21.23;16.23;;;11.40;99.90;;;;;;6176809;28;20026;-86
2021/10/12 09:33:14;;;;;;;23.40;16.63;;;11.90;99.90;;;;;;6176916;28;20041;-85
2021/10/12 09:36:31;;;;;;;23.50;15.63;;;11.90;99.90;;;;;;6173370;28;20045;-88
2021/10/12 09:39:38;;;;;;;19.95;15.02;;;12.10;99.90;;;;;;6176493;28;20022;-88
2021/10/12 09:42:41;;;;;;;19.63;15.25;;;12.30;99.90;;;;;;6180861;28;20046;-86
2021/10/12 09:45:42;;;;;;;;;;;12.50;99.90;;;;;;6197889;28;20135;-88
2021/10/12 09:48:42;;;;;;;24.30;15.13;;;12.80;99.90;;;;;;6165124;28;19936;-87
2021/10/12 09:52:07;;;;;;;20.05;15.27;;;12.50;99.90;;;;;;6181153;28;20527;-87
2021/10/12 09:55:07;;;;;;;119.22;98.85;;;12.40;99.90;;;;;;6180656;28;20114;-86
2021/10/12 09:58:08;;;;;;;31.52;25.25;;;;;;;;;;6181060;28;20158;-86
2021/10/12 10:01:10;;;;;;;25.45;18.25;;;12.60;99.90;;;;;;6181449;28;20034;-86
2021/10/12 10:04:11;;;;;;;23.58;16.20;;;12.60;99.90;;;;;;6196890;28;20029;-85
2021/10/12 10:07:17;;;;;;;20.20;15.10;;;12.70;99.90;;;;;;6180774;28;20034;-86
2021/10/12 10:10:18;;;;;;;17.13;12.93;;;;;;;;;;6181434;28;20300;-87
2021/10/12 10:13:19;;;;;;;20.67;12.68;;;;;;;;;;6196620;28;20037;-87
2021/10/12 10:16:20;;;;;;;21.58;11.55;;;12.60;99.90;;;;;;6180599;28;20038;-86
2021/10/12 10:19:25;;;;;;;16.00;8.93;;;12.70;99.90;;;;;;6180741;28;20085;-86
2021/10/12 10:22:48;;;;;;;15.55;10.15;;;13.00;99.90;;;;;;6179886;28;20061;-87
2021/10/12 10:25:49;;;;;;;15.48;9.85;;;;;;;;;;6179768;28;20032;-89
2021/10/12 10:28:51;;;;;;;13.63;9.70;;;;;;;;;;6180641;28;20042;-81
2021/10/12 10:31:55;;;;;;;18.02;11.80;;;13.10;99.90;;;;;;6196190;28;20026;-80
2021/10/12 10:34:59;;;;;;;15.20;12.15;;;13.20;99.90;;;;;;6196218;28;20065;-81
2021/10/12 10:38:32;;;;;;;16.88;11.32;;;13.70;99.90;;;;;;6196040;28;20026;-83
2021/10/12 10:41:36;;;;;;;19.85;13.60;;;13.30;99.90;;;;;;6196125;28;20030;-81
2021/10/12 10:44:55;;;;;;;17.98;11.88;;;13.40;99.90;;;;;;6187494;28;20050;-83
2021/10/12 10:48:01;;;;;;;19.42;11.35;;;13.50;99.90;;;;;;6173327;28;20465;-81
2021/10/12 10:51:20;;;;;;;15.40;10.10;;;13.50;99.90;;;;;;6187251;28;20026;-81
2021/10/12 10:54:40;;;;;;;16.60;11.30;;;13.50;99.90;;;;;;6169676;28;20373;-82
2021/10/12 10:58:00;;;;;;;17.83;9.38;;;13.60;99.90;;;;;;6171612;28;20019;-82
2021/10/12 11:01:01;;;;;;;17.10;11.43;;;13.90;99.90;;;;;;6171119;28;20026;-81
2021/10/12 11:04:01;;;;;;;20.13;13.95;;;13.50;99.90;;;;;;6171191;28;20035;-83
2021/10/12 11:07:02;;;;;;;25.10;14.63;;;;;;;;;;6188068;28;20035;-83
2021/10/12 11:10:04;;;;;;;21.05;14.57;;;14.10;99.90;;;;;;6187387;28;20054;-81
2021/10/12 11:13:04;;;;;;;20.73;15.57;;;13.50;99.90;;;;;;6187576;28;20074;-81
2021/10/12 11:16:09;;;;;;;19.58;13.40;;;13.30;99.90;;;;;;6187161;28;20054;-82
2021/10/12 11:19:10;;;;;;;15.52;11.05;;;13.10;99.90;;;;;;6171219;28;20031;-81
2021/10/12 11:22:15;;;;;;;19.80;13.38;;;13.00;99.90;;;;;;6187106;28;20027;-83
2021/10/12 11:25:16;;;;;;;22.58;15.05;;;13.10;99.90;;;;;;6170756;28;20031;-85
2021/10/12 11:28:16;;;;;;;25.23;16.92;;;12.80;99.90;;;;;;6186682;28;20126;-86
2021/10/12 11:31:18;;;;;;;26.48;16.85;;;12.80;99.90;;;;;;6154219;28;20041;-84
2021/10/12 11:34:25;;;;;;;25.50;16.42;;;12.90;99.90;;;;;;6187247;28;20050;-84
2021/10/12 11:37:26;;;;;;;31.45;16.30;;;12.80;99.90;;;;;;6187091;28;20097;-85
2021/10/12 11:40:27;;;;;;;21.67;14.88;;;;;;;;;;6187829;28;20402;-85
2021/10/12 11:43:35;;;;;;;29.55;15.70;;;12.50;99.90;;;;;;6177526;28;20397;-87
2021/10/12 11:46:36;;;;;;;25.17;16.05;;;;;;;;;;6178901;28;20058;-88
2021/10/12 11:49:41;;;;;;;22.65;14.88;;;12.20;99.90;;;;;;6179057;28;20113;-88
2021/10/12 11:52:46;;;;;;;23.23;15.18;;;12.30;99.90;;;;;;6178843;28;20030;-88
2021/10/12 11:55:49;;;;;;;21.95;15.45;;;;;;;;;;6179738;28;20113;-89
2021/10/12 11:58:57;;;;;;;24.40;16.73;;;12.00;99.90;;;;;;6179263;28;20030;-88
2021/10/12 12:02:01;;;;;;;26.05;17.00;;;11.90;99.90;;;;;;6178788;28;20117;-89
2021/10/12 12:05:02;;;;;;;21.65;15.90;;;;;;;;;;6179050;28;20073;-89
2021/10/12 12:08:03;;;;;;;22.90;16.20;;;;;;;;;;6179251;28;20523;-89
2021/10/12 12:11:04;;;;;;;28.23;17.35;;;;;;;;;;6178938;28;20029;-90
2021/10/12 12:14:05;;;;;;;25.65;17.08;;;11.90;99.90;;;;;;6179190;28;20022;-87
2021/10/12 12:17:17;;;;;;;25.67;15.82;;;12.00;99.90;;;;;;6178596;28;20026;-84
2021/10/12 12:20:18;;;;;;;;;;;12.00;99.90;;;;;;6178992;28;20018;-87
2021/10/12 12:23:38;;;;;;;26.73;15.85;;;12.10;99.90;;;;;;6162250;28;19977;-88
2021/10/12 12:26:39;;;;;;;24.08;14.90;;;12.10;99.90;;;;;;6194618;28;20030;-87
2021/10/12 12:29:39;;;;;;;24.63;15.82;;;12.10;99.90;;;;;;6178222;28;20125;-88
2021/10/12 12:32:41;;;;;;;23.27;15.85;;;;;;;;;;6178239;28;20038;-88
2021/10/12 12:35:44;;;;;;;19.50;14.48;;;12.10;99.90;;;;;;6178324;28;20512;-86
2021/10/12 12:38:45;;;;;;;21.70;14.50;;;12.50;99.90;;;;;;6177098;28;20088;-88
2021/10/12 12:41:47;;;;;;;20.38;14.85;;;;;;;;;;6178072;28;20042;-88
2021/10/12 12:45:08;;;;;;;24.60;15.20;;;12.20;99.90;;;;;;6177951;28;20116;-89
2021/10/12 12:48:08;;;;;;;29.10;21.67;;;12.30;99.90;;;;;;6177627;28;20049;-90
2021/10/12 12:51:10;;;;;;;19.25;14.48;;;;;;;;;;6177425;28;20022;-87
2021/10/12 12:54:11;;;;;;;21.02;13.70;;;;;;;;;;6177689;28;20543;-87
2021/10/12 12:57:14;;;;;;;22.52;13.95;;;12.50;99.90;;;;;;6178133;28;20088;-88
2021/10/12 13:00:15;;;;;;;17.40;12.50;;;12.50;99.90;;;;;;6178162;28;20034;-88
2021/10/12 13:03:16;;;;;;;19.58;12.48;;;12.70;99.90;;;;;;6178000;28;20602;-91
2021/10/12 13:06:17;;;;;;;20.75;11.80;;;12.70;99.90;;;;;;6178697;28;20077;-89
2021/10/12 13:09:18;;;;;;;18.15;11.90;;;;;;;;;;6178438;28;20026;-88
2021/10/12 13:12:19;;;;;;;19.33;11.55;;;12.80;99.90;;;;;;6178493;28;20057;-88
2021/10/12 13:15:21;;;;;;;18.00;11.77;;;;;;;;;;6178108;28;20566;-89
2021/10/12 13:18:21;;;;;;;21.25;12.20;;;13.00;99.90;;;;;;6183027;28;20691;-88
2021/10/12 13:21:22;;;;;;;16.85;11.63;;;13.20;99.90;;;;;;6182451;28;20030;-88
2021/10/12 13:24:23;;;;;;;15.10;10.85;;;;;;;;;;6182841;28;20037;-88
2021/10/12 13:27:24;;;;;;;17.98;11.05;;;12.90;99.90;;;;;;6182429;28;20057;-88
2021/10/12 13:30:25;;;;;;;16.98;10.15;;;12.90;99.90;;;;;;6182409;28;20026;-88
2021/10/12 13:33:26;;;;;;;14.60;10.27;;;;;;;;;;6181979;28;20077;-88
2021/10/12 13:36:26;;;;;;;17.00;10.57;;;12.60;99.90;;;;;;6182454;28;20120;-88
2021/10/12 13:39:27;;;;;;;16.25;11.23;;;;;;;;;;6182183;28;20036;-88
2021/10/12 13:42:28;;;;;;;14.18;11.07;;;12.50;99.90;;;;;;6182384;28;20545;-90
2021/10/12 13:45:29;;;;;;;16.58;10.98;;;;;;;;;;6181728;28;20160;-88
2021/10/12 13:48:30;;;;;;;15.73;10.77;;;12.30;99.90;;;;;;6182301;28;20040;-89
2021/10/12 13:51:30;;;;;;;14.82;11.15;;;12.50;99.90;;;;;;6181943;28;20035;-88
2021/10/12 13:54:32;;;;;;;16.30;10.98;;;12.30;99.90;;;;;;6182276;28;20038;-87
2021/10/12 13:57:35;;;;;;;18.27;11.45;;;12.30;99.90;;;;;;6182535;28;20024;-88
2021/10/12 14:00:37;;;;;;;13.95;9.23;;;12.10;99.90;;;;;;6180926;28;20030;-87
2021/10/12 14:03:37;;;;;;;18.33;10.63;;;12.30;99.90;;;;;;6165028;28;20026;-81
2021/10/12 14:06:40;;;;;;;15.43;9.65;;;12.30;99.90;;;;;;6197120;28;20181;-85
2021/10/12 14:09:47;;;;;;;13.07;8.90;;;;;;;;;;6181196;28;20362;-90
2021/10/12 14:12:47;;;;;;;16.95;9.88;;;12.10;99.90;;;;;;6181074;28;20457;-84
2021/10/12 14:15:48;;;;;;;13.85;9.00;;;;;;;;;;6181476;28;20238;-89
2021/10/12 14:18:49;;;;;;;13.45;9.23;;;12.20;99.90;;;;;;6181503;28;20050;-88
2021/10/12 14:21:50;;;;;;;12.75;8.32;;;;;;;;;;6181141;28;20038;-89
2021/10/12 14:24:50;;;;;;;17.35;9.00;;;12.30;99.90;;;;;;6181354;28;20034;-88
2021/10/12 14:27:54;;;;;;;13.13;8.77;;;;;;;;;;6164188;28;20516;-89
2021/10/12 14:30:55;;;;;;;14.50;9.88;;;12.60;99.90;;;;;;6197215;28;20030;-91
2021/10/12 14:33:55;;;;;;;31.83;16.92;;;12.60;99.90;;;;;;6164227;28;20041;-88
2021/10/12 14:36:58;;;;;;;31.58;17.58;;;;;;;;;;6181353;28;20031;-87
2021/10/12 14:39:59;;;;;;;26.52;16.35;;;12.70;99.90;;;;;;6180282;28;20035;-88
2021/10/12 14:43:00;;;;;;;16.10;9.13;;;;;;;;;;6180845;28;21140;-90
2021/10/12 14:46:02;;;;;;;13.75;8.43;;;;;;;;;;6181173;28;20023;-89
2021/10/12 14:49:26;;;;;;;13.10;9.25;;;12.80;99.90;;;;;;6180863;28;20023;-88
2021/10/12 14:52:27;;;;;;;19.80;12.57;;;;;;;;;;6155377;28;20113;-87
2021/10/12 14:55:28;;;;;;;15.13;11.23;;;13.10;99.90;;;;;;6170278;28;20019;-85
2021/10/12 14:58:29;;;;;;;13.98;9.55;;;;;;;;;;6154331;28;20042;-90
2021/10/12 15:01:30;;;;;;;18.10;10.23;;;12.50;99.90;;;;;;6154939;28;20026;-88
2021/10/12 15:04:31;;;;;;;16.98;10.40;;;12.70;99.90;;;;;;6138584;28;20129;-89
2021/10/12 15:07:33;;;;;;;17.88;11.07;;;;;;;;;;6138307;28;20038;-89
2021/10/12 15:10:34;;;;;;;15.73;10.05;;;;;;;;;;6153949;28;20093;-88
2021/10/12 15:13:35;;;;;;;15.65;11.55;;;;;;;;;;6169992;28;20049;-89
2021/10/12 15:16:36;;;;;;;17.38;10.88;;;;;;;;;;6153958;28;20115;-88
2021/10/12 15:19:37;;;;;;;17.38;10.48;;;;;;;;;;6169950;28;20026;-88
2021/10/12 15:22:41;;;;;;;15.02;11.18;;;;;;;;;;6169650;28;20045;-90
2021/10/12 15:25:42;;;;;;;18.90;10.73;;;;;;;;;;6169801;28;20398;-89
2021/10/12 15:28:43;;;;;;;13.18;9.38;;;12.20;99.90;;;;;;6178679;28;20041;-89
2021/10/12 15:31:47;;;;;;;18.38;9.75;;;;;;;;;;6179497;28;20034;-89
2021/10/12 15:34:51;;;;;;;15.85;9.80;;;12.60;99.90;;;;;;6179134;28;20029;-89
2021/10/12 15:37:52;;;;;;;13.98;9.77;;;12.30;99.90;;;;;;6179249;28;20030;-91
2021/10/12 15:40:56;;;;;;;13.18;9.63;;;12.30;99.90;;;;;;6179644;28;20031;-90
2021/10/12 15:43:56;;;;;;;13.63;8.95;;;12.60;99.90;;;;;;6178881;28;20082;-86
2021/10/12 15:47:12;;;;;;;14.60;8.77;;;12.40;99.90;;;;;;6162872;28;20075;-92
2021/10/12 15:50:53;;;;;;;16.55;9.30;;;12.20;99.90;;;;;;6163866;28;20037;-91
2021/10/12 15:53:53;;;;;;;14.23;8.90;;;12.30;99.90;;;;;;6120806;29;20047;-88
2021/10/12 15:56:54;;;;;;;13.70;8.52;;;12.10;99.90;;;;;;6106437;29;20079;-88
2021/10/12 15:59:56;;;;;;;15.27;8.90;;;12.10;99.90;;;;;;6121532;29;20125;-83
2021/10/12 16:03:06;;;;;;;15.20;8.80;;;12.10;99.90;;;;;;6122064;29;20028;-92
2021/10/12 16:06:06;;;;;;;20.45;11.73;;;12.40;99.90;;;;;;6120929;29;20039;-86
2021/10/12 16:09:08;;;;;;;17.63;10.07;;;;;;;;;;6120369;29;20094;-84
2021/10/12 16:12:18;;;;;;;13.60;9.77;;;12.00;99.90;;;;;;6104328;29;20500;-86
2021/10/12 16:21:59;;;;;;;12.10;9.52;;;12.00;99.90;;;;;;6120637;29;20043;-84